Time;durP1;ratioP1;P1;durP2;ratioP2;P2;SDS_P1;SDS_P2;PMS_P1;PMS_P2;Temp;Humidity;BMP_temperature;BMP_pressure;BME280_temperature;BME280_humidity;BME280_pressure;Samples;Min_cycle;Max_cycle;Signal;HPM_P1;HPM_P2
2022/09/11 00:00:03;;;;;;;;;;;;;;;28.40;42.28;100288.00;5058443;28;977;-42
2022/09/11 00:02:28;;;;;;;;;;;;;;;28.40;42.26;100291.56;5054828;28;1040;-41
2022/09/11 00:04:54;;;;;;;;;;;;;;;28.34;42.41;100292.38;5050984;28;938;-42
2022/09/11 00:07:19;;;;;;;;;;;;;;;28.33;42.11;100291.53;5055594;28;1123;-42
2022/09/11 00:09:45;;;;;;;;;;;;;;;28.29;42.16;100287.56;5058106;28;1969;-42
2022/09/11 00:12:11;;;;;;;;;;;;;;;28.31;42.26;100287.34;5057907;28;1139;-42
2022/09/11 00:14:36;;;;;;;;;;;;;;;28.24;42.24;100282.72;5052302;28;1206;-42
2022/09/11 00:17:02;;;;;;;;;;;;;;;28.38;42.26;100287.41;5052545;28;1021;-42
2022/09/11 00:19:27;;;;;;;;;;;;;;;28.38;42.50;100299.03;5054295;28;1393;-41
2022/09/11 00:21:55;;;;;;;;;;;;;;;28.34;42.39;100286.97;5043149;28;1068;-42
2022/09/11 00:24:20;;;;;;;;;;;;;;;28.39;42.17;100295.31;5051657;28;957;-42
2022/09/11 00:26:46;;;;;;;;;;;;;;;28.36;42.10;100307.34;5048850;28;1052;-41
2022/09/11 00:29:11;;;;;;;;;;;;;;;28.43;42.13;100310.09;5051580;28;1910;-42
2022/09/11 00:31:36;;;;;;;;;;;;;;;28.38;42.25;100306.34;5057533;28;941;-42
2022/09/11 00:34:02;;;;;;;;;;;;;;;28.35;42.15;100304.84;5057769;28;1013;-42
2022/09/11 00:36:28;;;;;;;;;;;;;;;28.38;42.17;100315.25;5057376;28;1028;-42
2022/09/11 00:38:53;;;;;;;;;;;;;;;28.36;41.90;100310.06;5056970;28;961;-41
2022/09/11 00:41:20;;;;;;;;;;;;;;;28.38;42.22;100311.75;5054785;28;1038;-42
2022/09/11 00:44:04;;;;;;;;;;;;;;;28.33;42.42;100302.34;5046215;28;990;-42
2022/09/11 00:46:39;;;;;;;;;;;;;;;28.32;42.37;100297.97;5057312;28;1100;-42
2022/09/11 00:49:10;;;;;;;;;;;;;;;28.25;42.50;100297.09;5056710;28;1906;-42
2022/09/11 00:51:36;;;;;;;;;;;;;;;28.28;42.56;100296.69;5050752;28;1203;-42
2022/09/11 00:54:02;;;;;;;;;;;;;;;28.35;42.21;100294.03;5056884;28;1083;-42
2022/09/11 00:56:28;;;;;;;;;;;;;;;28.31;42.52;100296.28;5055651;28;954;-41
2022/09/11 00:58:54;;;;;;;;;;;;;;;28.34;42.28;100303.19;5053873;28;990;-42
2022/09/11 01:01:19;;;;;;;;;;;;;;;28.40;41.98;100306.94;5050221;28;1064;-43
2022/09/11 01:03:44;;;;;;;;;;;;;;;28.43;41.99;100314.66;5054254;28;1135;-42
2022/09/11 01:06:09;;;;;;;;;;;;;;;28.33;42.02;100304.22;5056781;28;1139;-42
2022/09/11 01:08:35;;;;;;;;;;;;;;;28.37;41.59;100297.38;5056575;28;1901;-43
2022/09/11 01:11:19;;;;;;;;;;;;;;;28.29;42.26;100298.38;5048201;28;1005;-42
2022/09/11 01:14:03;;;;;;;;;;;;;;;28.27;42.59;100291.47;5052806;28;1112;-42
2022/09/11 01:16:52;;;;;;;;;;;;;;;28.27;42.38;100292.31;5055445;28;826;-42
2022/09/11 01:19:17;;;;;;;;;;;;;;;28.30;42.01;100289.22;5029048;28;1439;-41
2022/09/11 01:21:51;;;;;;;;;;;;;;;28.28;42.84;100287.75;5045935;28;981;-42
2022/09/11 01:24:19;;;;;;;;;;;;;;;28.18;42.44;100280.00;5052242;28;1202;-41
2022/09/11 01:26:45;;;;;;;;;;;;;;;28.21;42.24;100280.44;5055532;28;993;-42
2022/09/11 01:29:16;;;;;;;;;;;;;;;28.20;42.23;100273.34;5037581;28;1902;-42
2022/09/11 01:31:45;;;;;;;;;;;;;;;28.25;42.53;100275.44;5055108;28;1025;-41
2022/09/11 01:34:22;;;;;;;;;;;;;;;28.26;42.28;100279.81;5055343;28;1472;-42
2022/09/11 01:36:52;;;;;;;;;;;;;;;28.22;42.32;100282.13;5046155;28;1017;-42
2022/09/11 01:39:18;;;;;;;;;;;;;;;28.22;42.20;100276.69;5052085;28;1089;-41
2022/09/11 01:41:47;;;;;;;;;;;;;;;28.21;42.39;100266.09;5044597;28;933;-42
2022/09/11 01:44:12;;;;;;;;;;;;;;;28.23;42.15;100272.94;5052274;28;1105;-43
2022/09/11 01:46:39;;;;;;;;;;;;;;;28.26;42.11;100271.69;5054361;28;1227;-42
2022/09/11 01:49:05;;;;;;;;;;;;;;;28.30;42.62;100278.38;5055026;28;2241;-41
2022/09/11 01:51:31;;;;;;;;;;;;;;;28.26;42.43;100273.59;5055424;28;1241;-43
2022/09/11 01:53:58;;;;;;;;;;;;;;;28.26;42.31;100271.69;5056219;28;993;-42
2022/09/11 01:56:28;;;;;;;;;;;;;;;28.26;42.47;100262.78;5054875;28;1021;-42
2022/09/11 01:58:55;;;;;;;;;;;;;;;28.28;42.13;100264.22;5056008;28;961;-42
2022/09/11 02:01:23;;;;;;;;;;;;;;;28.31;42.07;100257.59;5054642;28;1080;-42
2022/09/11 02:03:57;;;;;;;;;;;;;;;28.29;42.32;100262.38;5054574;28;1263;-42
2022/09/11 02:06:29;;;;;;;;;;;;;;;28.27;41.99;100264.44;5055848;28;1462;-41
2022/09/11 02:09:01;;;;;;;;;;;;;;;28.30;41.92;100266.72;5055555;28;1969;-41
2022/09/11 02:11:28;;;;;;;;;;;;;;;28.27;42.21;100265.28;5045370;28;953;-41
2022/09/11 02:13:56;;;;;;;;;;;;;;;28.27;42.48;100257.16;5053547;28;1132;-42
2022/09/11 02:16:41;;;;;;;;;;;;;;;28.23;42.29;100245.91;5055655;28;904;-42
2022/09/11 02:19:13;;;;;;;;;;;;;;;28.33;42.59;100258.22;5042046;28;1097;-42
2022/09/11 02:21:39;;;;;;;;;;;;;;;28.26;42.26;100258.19;5044310;28;1040;-42
2022/09/11 02:24:05;;;;;;;;;;;;;;;28.28;42.12;100252.59;5055577;28;1075;-42
2022/09/11 02:26:31;;;;;;;;;;;;;;;28.16;42.29;100239.63;5055903;28;1056;-42
2022/09/11 02:28:56;;;;;;;;;;;;;;;28.31;42.26;100249.47;5054220;28;1910;-42
2022/09/11 02:31:21;;;;;;;;;;;;;;;28.31;42.24;100246.78;5055590;28;1060;-41
2022/09/11 02:33:47;;;;;;;;;;;;;;;28.16;42.44;100247.75;5055914;28;953;-42
2022/09/11 02:36:28;;;;;;;;;;;;;;;28.26;42.34;100238.44;5055641;28;1531;-42
2022/09/11 02:38:53;;;;;;;;;;;;;;;28.26;42.31;100238.44;5056037;28;1052;-41
2022/09/11 02:41:20;;;;;;;;;;;;;;;28.19;42.17;100233.00;5055422;28;917;-42
2022/09/11 02:44:03;;;;;;;;;;;;;;;28.19;42.22;100231.13;5054569;28;1018;-42
2022/09/11 02:46:33;;;;;;;;;;;;;;;28.27;42.31;100242.78;5040907;28;1184;-41
2022/09/11 02:48:59;;;;;;;;;;;;;;;28.25;42.26;100245.69;5058146;28;1969;-41
2022/09/11 02:51:27;;;;;;;;;;;;;;;28.31;42.44;100246.78;5058964;28;1198;-43
2022/09/11 02:54:01;;;;;;;;;;;;;;;28.25;42.89;100243.00;5058963;28;961;-42
2022/09/11 02:56:43;;;;;;;;;;;;;;;28.18;42.44;100242.13;5059099;28;1045;-43
2022/09/11 02:59:09;;;;;;;;;;;;;;;28.11;42.70;100242.94;5059285;28;996;-41
2022/09/11 03:01:45;;;;;;;;;;;;;;;28.19;42.02;100249.22;5059255;28;1064;-41
2022/09/11 03:04:10;;;;;;;;;;;;;;;28.12;42.21;100249.19;5054049;28;993;-41
2022/09/11 03:06:36;;;;;;;;;;;;;;;28.18;42.25;100266.47;5054169;28;1064;-43
2022/09/11 03:09:01;;;;;;;;;;;;;;;28.18;42.11;100261.06;5058140;28;1901;-42
2022/09/11 03:11:26;;;;;;;;;;;;;;;28.11;42.28;100264.56;5058777;28;1064;-41
2022/09/11 03:13:52;;;;;;;;;;;;;;;28.26;42.02;100266.28;5057532;28;1135;-42
2022/09/11 03:16:17;;;;;;;;;;;;;;;28.24;42.67;100261.09;5055827;28;1085;-42
2022/09/11 03:18:43;;;;;;;;;;;;;;;28.26;42.14;100258.19;5055396;28;1217;-43
2022/09/11 03:21:10;;;;;;;;;;;;;;;28.28;42.60;100264.22;5047861;28;1213;-41
2022/09/11 03:23:35;;;;;;;;;;;;;;;28.34;42.21;100259.91;5059010;28;981;-41
2022/09/11 03:26:00;;;;;;;;;;;;;;;28.17;42.44;100262.09;5058852;28;1222;-42
2022/09/11 03:28:26;;;;;;;;;;;;;;;28.16;42.42;100265.84;5057703;28;1961;-42
2022/09/11 03:30:54;;;;;;;;;;;;;;;28.19;42.37;100266.28;5048954;28;1180;-41
2022/09/11 03:33:19;;;;;;;;;;;;;;;28.39;42.98;100268.25;5046514;28;1196;-44
2022/09/11 03:35:45;;;;;;;;;;;;;;;28.38;42.28;100273.88;5049611;28;1061;-42
2022/09/11 03:38:11;;;;;;;;;;;;;;;28.28;41.98;100272.34;5050730;28;1163;-42
2022/09/11 03:40:36;;;;;;;;;;;;;;;27.70;45.55;100270.81;5052000;28;773;-44
2022/09/11 03:43:02;;;;;;;;;;;;;;;27.44;46.63;100275.00;5058267;28;1056;-43
2022/09/11 03:45:27;;;;;;;;;;;;;;;27.28;47.27;100276.13;5057913;28;1143;-44
2022/09/11 03:47:53;;;;;;;;;;;;;;;27.47;46.14;100272.75;5058261;28;989;-44
2022/09/11 03:50:18;;;;;;;;;;;;;;;27.24;47.47;100275.69;5058132;28;1971;-44
2022/09/11 03:52:43;;;;;;;;;;;;;;;27.16;47.69;100284.72;5051067;28;1002;-44
2022/09/11 03:55:09;;;;;;;;;;;;;;;27.26;47.43;100285.25;5054125;28;1378;-42
2022/09/11 03:57:34;;;;;;;;;;;;;;;27.31;46.93;100279.25;5058172;28;1411;-42
2022/09/11 04:00:00;;;;;;;;;;;;;;;27.37;47.19;100283.03;5058060;28;1163;-42
2022/09/11 04:02:25;;;;;;;;;;;;;;;27.38;47.19;100279.31;5058331;28;1051;-42
2022/09/11 04:04:51;;;;;;;;;;;;;;;27.49;47.27;100277.94;5052444;28;981;-42
2022/09/11 04:07:16;;;;;;;;;;;;;;;27.49;46.26;100280.66;5048492;28;973;-42
2022/09/11 04:09:41;;;;;;;;;;;;;;;27.50;46.48;100276.91;5053816;28;1976;-42
2022/09/11 04:12:07;;;;;;;;;;;;;;;27.49;46.08;100280.66;5054922;28;1163;-42
2022/09/11 04:14:32;;;;;;;;;;;;;;;27.43;46.59;100279.56;5055268;28;1044;-42
2022/09/11 04:16:58;;;;;;;;;;;;;;;27.30;47.23;100282.16;5048426;28;1222;-42
2022/09/11 04:19:23;;;;;;;;;;;;;;;27.28;45.30;100276.13;5056336;28;1210;-42
2022/09/11 04:21:48;;;;;;;;;;;;;;;27.29;44.97;100275.94;5055844;28;1024;-42
2022/09/11 04:24:14;;;;;;;;;;;;;;;27.30;42.97;100276.75;5055427;28;1206;-42
2022/09/11 04:26:39;;;;;;;;;;;;;;;27.38;43.95;100273.91;5057228;28;1127;-42
2022/09/11 04:29:04;;;;;;;;;;;;;;;27.25;45.59;100280.03;5050537;28;1906;-42
2022/09/11 04:31:30;;;;;;;;;;;;;;;27.29;44.72;100281.34;5051997;28;954;-42
2022/09/11 04:33:55;;;;;;;;;;;;;;;27.37;43.74;100283.91;5047921;28;1067;-42
2022/09/11 04:36:23;;;;;;;;;;;;;;;27.47;44.38;100288.94;5052578;28;981;-42
2022/09/11 04:38:52;;;;;;;;;;;;;;;27.32;45.79;100282.78;5051059;28;1041;-43
2022/09/11 04:41:17;;;;;;;;;;;;;;;27.13;46.73;100282.44;5054346;28;778;-42
2022/09/11 04:43:42;;;;;;;;;;;;;;;27.15;46.46;100283.06;5042728;28;1016;-42
2022/09/11 04:46:17;;;;;;;;;;;;;;;27.28;46.89;100289.63;5054675;28;1031;-42
2022/09/11 04:48:45;;;;;;;;;;;;;;;27.23;46.99;100291.03;5056419;28;1983;-43
2022/09/11 04:51:11;;;;;;;;;;;;;;;27.28;46.60;100289.63;5037617;28;969;-42
2022/09/11 04:53:36;;;;;;;;;;;;;;;27.26;45.21;100306.84;5042816;28;994;-42
2022/09/11 04:56:09;;;;;;;;;;;;;;;27.37;46.04;100302.78;5045470;28;966;-42
2022/09/11 04:58:34;;;;;;;;;;;;;;;27.31;43.60;100291.94;5052460;28;1009;-42
2022/09/11 05:01:00;;;;;;;;;;;;;;;27.54;43.22;100280.03;5048935;28;1076;-42
2022/09/11 05:03:25;;;;;;;;;;;;;;;27.68;43.36;100289.94;5052811;28;1055;-41
2022/09/11 05:05:50;;;;;;;;;;;;;;;27.77;42.90;100290.63;5042926;28;977;-42
2022/09/11 05:08:19;;;;;;;;;;;;;;;27.77;43.35;100287.06;5053077;28;1972;-41
2022/09/11 05:10:45;;;;;;;;;;;;;;;27.73;43.73;100284.78;5054754;28;1036;-42
2022/09/11 05:13:10;;;;;;;;;;;;;;;27.80;43.24;100289.38;5054969;28;1124;-42
2022/09/11 05:15:36;;;;;;;;;;;;;;;27.91;42.84;100293.41;5050157;28;1005;-42
2022/09/11 05:18:03;;;;;;;;;;;;;;;27.93;42.76;100288.59;5042256;28;1056;-42
2022/09/11 05:20:29;;;;;;;;;;;;;;;27.87;42.64;100291.09;5054190;28;1171;-42
2022/09/11 05:22:55;;;;;;;;;;;;;;;27.98;43.76;100297.81;5054353;28;1158;-42
2022/09/11 05:25:21;;;;;;;;;;;;;;;27.99;42.80;100288.66;5056117;28;1099;-42
2022/09/11 05:27:46;;;;;;;;;;;;;;;27.97;42.72;100298.00;5047233;28;965;-42
2022/09/11 05:30:12;;;;;;;;;;;;;;;27.95;42.59;100292.78;5046230;28;1994;-42
2022/09/11 05:32:37;;;;;;;;;;;;;;;27.97;42.51;100288.03;5050603;28;1032;-42
2022/09/11 05:35:03;;;;;;;;;;;;;;;28.05;41.99;100286.19;5048854;28;1064;-42
2022/09/11 05:37:28;;;;;;;;;;;;;;;28.07;41.87;100282.25;5052824;28;997;-42
2022/09/11 05:39:53;;;;;;;;;;;;;;;28.05;42.02;100284.31;5050469;28;1214;-42
2022/09/11 05:42:19;;;;;;;;;;;;;;;28.01;42.62;100276.81;5053795;28;850;-42
2022/09/11 05:44:46;;;;;;;;;;;;;;;27.99;42.69;100283.25;5054303;28;1159;-42
2022/09/11 05:47:13;;;;;;;;;;;;;;;27.68;41.34;100276.41;5056166;28;1053;-42
2022/09/11 05:49:38;;;;;;;;;;;;;;;27.93;42.22;100281.34;5054850;28;1955;-42
2022/09/11 05:52:03;;;;;;;;;;;;;;;27.92;41.55;100271.56;5043704;28;1067;-42
2022/09/11 05:54:29;;;;;;;;;;;;;;;28.00;40.91;100273.28;5049526;28;886;-42
2022/09/11 05:56:54;;;;;;;;;;;;;;;28.08;40.98;100274.97;5056139;28;1159;-42
2022/09/11 05:59:19;;;;;;;;;;;;;;;27.96;41.39;100272.00;5055807;28;969;-42
2022/09/11 06:01:46;;;;;;;;;;;;;;;28.11;41.15;100280.00;5055786;28;1107;-42
2022/09/11 06:04:12;;;;;;;;;;;;;;;28.20;40.68;100283.34;5056076;28;969;-43
2022/09/11 06:06:38;;;;;;;;;;;;;;;28.16;40.53;100268.56;5055749;28;885;-42
2022/09/11 06:09:04;;;;;;;;;;;;;;;28.06;41.35;100269.75;5055479;28;1948;-42
2022/09/11 06:11:29;;;;;;;;;;;;;;;28.15;41.61;100267.72;5055911;28;1036;-42
2022/09/11 06:13:55;;;;;;;;;;;;;;;28.20;40.82;100265.25;5055241;28;1202;-42
2022/09/11 06:16:21;;;;;;;;;;;;;;;28.21;40.59;100264.19;5056016;28;950;-42
2022/09/11 06:18:49;;;;;;;;;;;;;;;28.27;41.91;100269.84;5047783;28;1056;-42
2022/09/11 06:21:18;;;;;;;;;;;;;;;28.28;40.87;100269.63;5044426;28;1112;-42
2022/09/11 06:23:47;;;;;;;;;;;;;;;28.19;40.97;100271.69;5059693;28;1063;-42
2022/09/11 06:26:13;;;;;;;;;;;;;;;28.16;41.14;100261.25;5046136;28;989;-42
2022/09/11 06:28:38;;;;;;;;;;;;;;;28.23;40.00;100262.13;5054585;28;1977;-42
2022/09/11 06:31:04;;;;;;;;;;;;;;;28.18;40.58;100270.00;5052820;28;862;-42
2022/09/11 06:33:33;;;;;;;;;;;;;;;28.14;41.22;100267.94;5056499;28;974;-42
2022/09/11 06:36:02;;;;;;;;;;;;;;;28.17;41.04;100268.34;5058590;28;1163;-42
2022/09/11 06:38:28;;;;;;;;;;;;;;;28.10;40.73;100270.19;5059422;28;985;-42
2022/09/11 06:40:53;;;;;;;;;;;;;;;28.26;40.97;100271.69;5055840;28;957;-43
2022/09/11 06:43:19;;;;;;;;;;;;;;;28.22;40.60;100274.00;5051430;28;841;-42
2022/09/11 06:45:47;;;;;;;;;;;;;;;28.31;39.85;100265.72;5054100;28;988;-43
2022/09/11 06:48:12;;;;;;;;;;;;;;;28.39;39.99;100270.97;5059171;28;1969;-43
2022/09/11 06:50:39;;;;;;;;;;;;;;;28.42;39.31;100267.84;5059545;28;961;-42
2022/09/11 06:53:05;;;;;;;;;;;;;;;28.43;39.57;100265.97;5059342;28;1179;-42
2022/09/11 06:55:30;;;;;;;;;;;;;;;28.35;39.86;100267.81;5054972;28;969;-42
2022/09/11 06:57:56;;;;;;;;;;;;;;;28.30;40.06;100281.09;5059135;28;1167;-42
2022/09/11 07:00:21;;;;;;;;;;;;;;;28.35;40.03;100277.81;5052275;28;910;-42
2022/09/11 07:02:46;;;;;;;;;;;;;;;28.23;40.03;100272.94;5050039;28;1329;-42
2022/09/11 07:05:12;;;;;;;;;;;;;;;28.29;39.98;100279.44;5052927;28;1179;-43
2022/09/11 07:07:38;;;;;;;;;;;;;;;28.32;40.29;100273.63;5049042;28;1195;-42
2022/09/11 07:10:04;;;;;;;;;;;;;;;28.40;39.91;100279.91;5053367;28;1951;-42
2022/09/11 07:12:30;;;;;;;;;;;;;;;28.40;39.65;100283.44;5050801;28;1261;-42
2022/09/11 07:14:56;;;;;;;;;;;;;;;28.39;40.42;100281.78;5053564;28;1128;-42
2022/09/11 07:17:21;;;;;;;;;;;;;;;28.37;40.55;100291.97;5059178;28;1099;-42
2022/09/11 07:19:46;;;;;;;;;;;;;;;28.42;40.12;100286.78;5043042;28;1053;-43
2022/09/11 07:22:13;;;;;;;;;;;;;;;28.43;39.86;100291.16;5051673;28;1009;-43
2022/09/11 07:24:39;;;;;;;;;;;;;;;28.58;39.92;100290.13;5058630;28;1183;-42
2022/09/11 07:27:04;;;;;;;;;;;;;;;28.50;40.49;100303.84;5058421;28;1028;-42
2022/09/11 07:29:30;;;;;;;;;;;;;;;28.49;40.37;100294.94;5058390;28;1906;-43
2022/09/11 07:31:56;;;;;;;;;;;;;;;28.50;40.36;100296.59;5045376;28;997;-42
2022/09/11 07:34:22;;;;;;;;;;;;;;;28.48;41.02;100304.91;5058083;28;1004;-42
2022/09/11 07:36:50;;;;;;;;;;;;;;;28.52;39.99;100305.34;5058456;28;969;-42
2022/09/11 07:39:15;;;;;;;;;;;;;;;28.64;39.77;100302.88;5058228;28;993;-42
2022/09/11 07:41:41;;;;;;;;;;;;;;;28.56;39.83;100303.06;5057718;28;1189;-43
2022/09/11 07:44:06;;;;;;;;;;;;;;;28.60;40.21;100299.75;5053447;28;1033;-42
2022/09/11 07:46:31;;;;;;;;;;;;;;;28.60;39.68;100299.75;5058266;28;1115;-43
2022/09/11 07:48:57;;;;;;;;;;;;;;;28.79;39.25;100301.88;5058114;28;1965;-43
2022/09/11 07:51:22;;;;;;;;;;;;;;;28.67;39.65;100305.16;5051146;28;855;-42
2022/09/11 07:53:49;;;;;;;;;;;;;;;28.66;40.56;100297.25;5056252;28;966;-42
2022/09/11 07:56:16;;;;;;;;;;;;;;;29.03;39.95;100305.88;5046672;28;1056;-40
2022/09/11 07:58:42;;;;;;;;;;;;;;;29.17;39.17;100308.59;5057849;28;1187;-40
2022/09/11 08:01:08;;;;;;;;;;;;;;;29.23;38.83;100315.06;5057916;28;1043;-42
2022/09/11 08:03:33;;;;;;;;;;;;;;;29.27;38.79;100306.31;5057864;28;1155;-42
2022/09/11 08:05:59;;;;;;;;;;;;;;;29.27;38.80;100305.47;5053151;28;781;-41
2022/09/11 08:08:25;;;;;;;;;;;;;;;29.29;37.92;100298.81;5053537;28;1970;-42
2022/09/11 08:10:50;;;;;;;;;;;;;;;29.27;38.23;100302.75;5058130;28;969;-40
2022/09/11 08:13:17;;;;;;;;;;;;;;;29.23;37.96;100299.63;5057437;28;1020;-42
2022/09/11 08:15:46;;;;;;;;;;;;;;;29.26;38.16;100307.34;5044653;28;933;-41
2022/09/11 08:18:12;;;;;;;;;;;;;;;29.26;37.90;100304.63;5057384;28;1043;-42
2022/09/11 08:20:37;;;;;;;;;;;;;;;29.30;37.39;100302.34;5043983;28;1196;-41
2022/09/11 08:23:02;;;;;;;;;;;;;;;29.27;37.05;100303.59;5043814;28;1041;-42
2022/09/11 08:25:28;;;;;;;;;;;;;;;29.26;35.94;100301.91;5045941;28;942;-39
2022/09/11 08:27:53;;;;;;;;;;;;;;;29.25;37.19;100304.84;5055948;28;1017;-42
2022/09/11 08:30:18;;;;;;;;;;;;;;;29.30;36.86;100305.88;5057016;28;1902;-40
2022/09/11 08:32:44;;;;;;;;;;;;;;;29.25;36.83;100304.84;5055830;28;985;-41
2022/09/11 08:35:09;;;;;;;;;;;;;;;29.23;36.82;100299.63;5057347;28;1143;-40
2022/09/11 08:37:34;;;;;;;;;;;;;;;29.24;36.55;100304.03;5057741;28;989;-40
2022/09/11 08:40:00;;;;;;;;;;;;;;;29.25;36.36;100296.72;5057239;28;1100;-40
2022/09/11 08:42:26;;;;;;;;;;;;;;;29.23;36.56;100293.41;5054390;28;1108;-42
2022/09/11 08:44:55;;;;;;;;;;;;;;;29.23;36.43;100290.69;5053712;28;1456;-41
2022/09/11 08:47:23;;;;;;;;;;;;;;;29.21;36.27;100280.88;5057262;28;1048;-40
2022/09/11 08:49:52;;;;;;;;;;;;;;;29.22;36.14;100281.72;5044145;28;1906;-41
2022/09/11 08:52:17;;;;;;;;;;;;;;;29.22;36.44;100281.72;5055983;28;1052;-42
2022/09/11 08:54:42;;;;;;;;;;;;;;;29.21;36.39;100275.47;5054491;28;969;-41
2022/09/11 08:57:27;;;;;;;;;;;;;;;29.24;36.31;100274.22;5056123;28;1037;-39
2022/09/11 08:59:52;;;;;;;;;;;;;;;29.22;36.02;100281.72;5055900;28;970;-41
2022/09/11 09:02:18;;;;;;;;;;;;;;;29.21;35.87;100280.06;5057104;28;981;-40
2022/09/11 09:04:52;;;;;;;;;;;;;;;29.20;35.45;100275.66;5056601;28;1059;-40
2022/09/11 09:07:21;;;;;;;;;;;;;;;29.20;35.62;100275.66;5047392;28;798;-41
2022/09/11 09:09:49;;;;;;;;;;;;;;;29.12;35.70;100270.47;5056817;28;1967;-40
2022/09/11 09:12:34;;;;;;;;;;;;;;;29.13;35.54;100264.84;5056194;28;1213;-41
2022/09/11 09:15:17;;;;;;;;;;;;;;;29.10;35.32;100257.13;5055649;28;1127;-40
2022/09/11 09:17:44;;;;;;;;;;;;;;;29.15;35.42;100262.75;5045449;28;938;-42
2022/09/11 09:20:15;;;;;;;;;;;;;;;29.15;35.34;100254.63;5045578;28;1044;-40
2022/09/11 09:22:44;;;;;;;;;;;;;;;29.16;35.06;100250.88;5055209;28;1565;-42
2022/09/11 09:25:13;;;;;;;;;;;;;;;29.17;35.08;100251.72;5054848;28;981;-41
2022/09/11 09:27:41;;;;;;;;;;;;;;;29.15;34.96;100253.78;5056396;28;966;-39
2022/09/11 09:30:12;;;;;;;;;;;;;;;29.15;35.20;100243.81;5056162;28;1973;-42
2022/09/11 09:32:41;;;;;;;;;;;;;;;29.15;34.29;100254.63;5052489;28;910;-42
2022/09/11 09:35:12;;;;;;;;;;;;;;;29.18;34.82;100251.50;5055054;28;1005;-42
2022/09/11 09:37:37;;;;;;;;;;;;;;;29.21;34.04;100253.78;5055293;28;1021;-42
2022/09/11 09:40:04;;;;;;;;;;;;;;;29.21;34.48;100259.22;5056274;28;1100;-42
2022/09/11 09:42:29;;;;;;;;;;;;;;;29.23;34.50;100250.88;5056414;28;973;-41
2022/09/11 09:44:55;;;;;;;;;;;;;;;29.16;34.72;100250.88;5056189;28;1216;-41
2022/09/11 09:47:20;;;;;;;;;;;;;;;29.20;34.27;100257.56;5055620;28;949;-42
2022/09/11 09:49:45;;;;;;;;;;;;;;;29.22;33.89;100251.91;5054950;28;1913;-41
2022/09/11 09:52:14;;;;;;;;;;;;;;;29.27;34.30;100249.41;5056323;28;992;-39
2022/09/11 09:54:39;;;;;;;;;;;;;;;28.75;33.92;100244.59;5055806;28;1005;-42
2022/09/11 09:57:09;;;;;;;;;;;;;;;28.38;35.60;100244.13;5054612;28;1048;-43
2022/09/11 09:59:45;;;;;;;;;;;;;;;28.63;34.80;100257.06;5056343;28;969;-43
2022/09/11 10:02:11;;;;;;;;;;;;;;;28.97;34.26;100252.56;5052614;28;1005;-43
2022/09/11 10:04:36;;;;;;;;;;;;;;;29.19;34.04;100242.34;5056041;28;1048;-42
2022/09/11 10:07:05;;;;;;;;;;;;;;;29.20;33.18;100251.28;5050750;28;1128;-42
2022/09/11 10:09:31;;;;;;;;;;;;;;;29.52;33.23;100245.22;5043562;28;1969;-43
2022/09/11 10:12:00;;;;;;;;;;;;;;;28.66;34.00;100240.44;5043948;28;1093;-43
2022/09/11 10:14:25;;;;;;;;;;;;;;;28.67;35.00;100250.19;5053732;28;1029;-44
2022/09/11 10:16:52;;;;;;;;;;;;;;;28.81;34.61;100232.94;5055178;28;1070;-43
2022/09/11 10:19:33;;;;;;;;;;;;;;;28.35;35.40;100240.78;5052182;28;1163;-44
2022/09/11 10:22:18;;;;;;;;;;;;;;;28.24;35.06;100247.56;5054379;28;961;-44
2022/09/11 10:24:44;;;;;;;;;;;;;;;28.29;34.53;100233.44;5041838;28;1598;-44
2022/09/11 10:27:09;;;;;;;;;;;;;;;28.02;34.51;100237.91;5055683;28;1020;-44
2022/09/11 10:29:35;;;;;;;;;;;;;;;28.34;33.60;100239.09;5051779;28;1902;-43
2022/09/11 10:32:02;;;;;;;;;;;;;;;28.22;33.88;100230.72;5048551;28;1092;-44
2022/09/11 10:34:47;;;;;;;;;;;;;;;27.91;33.96;100220.41;5048212;28;1096;-44
2022/09/11 10:37:12;;;;;;;;;;;;;;;28.07;33.72;100213.81;5047648;28;1009;-43
2022/09/11 10:39:39;;;;;;;;;;;;;;;27.75;33.92;100214.31;5055722;28;1155;-43
2022/09/11 10:42:24;;;;;;;;;;;;;;;27.85;33.83;100212.06;5054491;28;997;-43
2022/09/11 10:44:50;;;;;;;;;;;;;;;27.72;34.06;100214.72;5049138;28;1251;-43
2022/09/11 10:47:16;;;;;;;;;;;;;;;27.76;33.81;100207.84;5055363;28;1009;-44
2022/09/11 10:49:41;;;;;;;;;;;;;;;27.63;33.98;100200.50;5053517;28;1913;-44
2022/09/11 10:52:07;;;;;;;;;;;;;;;27.43;34.35;100209.31;5053609;28;1135;-44
2022/09/11 10:54:38;;;;;;;;;;;;;;;27.39;34.12;100206.19;5054980;28;1060;-44
2022/09/11 10:57:16;;;;;;;;;;;;;;;27.42;33.95;100206.81;5046412;28;938;-44
2022/09/11 10:59:42;;;;;;;;;;;;;;;27.77;32.88;100197.88;5037962;28;982;-44
2022/09/11 11:02:22;;;;;;;;;;;;;;;27.57;33.63;100204.00;5045554;28;961;-43
2022/09/11 11:04:47;;;;;;;;;;;;;;;27.42;33.98;100207.66;5048719;28;1021;-44
2022/09/11 11:07:16;;;;;;;;;;;;;;;27.43;33.93;100200.38;5049579;28;1032;-44
2022/09/11 11:09:44;;;;;;;;;;;;;;;27.40;34.35;100201.63;5039942;28;1902;-44
2022/09/11 11:12:33;;;;;;;;;;;;;;;27.58;34.17;100209.19;5050930;28;965;-44
2022/09/11 11:15:03;;;;;;;;;;;;;;;27.94;33.06;100204.63;5023271;28;1109;-43
2022/09/11 11:17:48;;;;;;;;;;;;;;;27.79;32.85;100206.63;5052259;28;1224;-44
2022/09/11 11:20:32;;;;;;;;;;;;;;;27.75;32.96;100198.09;5054150;28;1181;-43
2022/09/11 11:23:05;;;;;;;;;;;;;;;27.96;32.34;100196.31;5053167;28;965;-43
2022/09/11 11:25:34;;;;;;;;;;;;;;;28.79;30.98;100196.28;5046027;28;1096;-43
2022/09/11 11:28:03;;;;;;;;;;;;;;;29.08;30.20;100197.75;5047700;28;1175;-43
2022/09/11 11:30:54;;;;;;;;;;;;;;;29.37;29.49;100199.38;5047427;28;1975;-43
2022/09/11 11:33:23;;;;;;;;;;;;;;;29.28;29.90;100190.66;5026570;28;1356;-43
2022/09/11 11:36:08;;;;;;;;;;;;;;;29.41;29.34;100185.19;5055594;28;1060;-42
2022/09/11 11:38:39;;;;;;;;;;;;;;;29.74;29.31;100186.19;5043600;28;1025;-43
2022/09/11 11:41:25;;;;;;;;;;;;;;;29.40;29.66;100175.41;5056287;28;1032;-43
2022/09/11 11:43:51;;;;;;;;;;;;;;;29.18;30.42;100177.53;5044830;28;1001;-43
2022/09/11 11:46:19;;;;;;;;;;;;;;;29.28;30.82;100179.84;5051586;28;1136;-42
2022/09/11 11:48:57;;;;;;;;;;;;;;;29.51;30.25;100186.66;5046841;28;1937;-43
2022/09/11 11:51:29;;;;;;;;;;;;;;;29.45;30.73;100174.75;5050944;28;1004;-43
2022/09/11 11:54:12;;;;;;;;;;;;;;;29.43;30.68;100174.97;5050675;28;981;-43
2022/09/11 11:56:45;;;;;;;;;;;;;;;29.29;30.71;100165.25;5048446;28;965;-44
2022/09/11 11:59:30;;;;;;;;;;;;;;;29.43;30.73;100158.72;5053941;28;977;-43
2022/09/11 12:02:07;;;;;;;;;;;;;;;28.73;31.59;100155.47;5051827;28;1128;-43
2022/09/11 12:04:35;;;;;;;;;;;;;;;28.26;33.01;100160.00;5056069;28;1036;-43
2022/09/11 12:07:01;;;;;;;;;;;;;;;28.11;33.32;100164.53;5055796;28;1171;-43
2022/09/11 12:09:26;;;;;;;;;;;;;;;28.09;33.68;100163.09;5057103;28;1898;-42
2022/09/11 12:11:52;;;;;;;;;;;;;;;28.05;33.78;100151.84;5041146;28;1067;-42
2022/09/11 12:14:43;;;;;;;;;;;;;;;28.03;33.50;100159.31;5047032;28;1040;-42
2022/09/11 12:17:15;;;;;;;;;;;;;;;28.16;33.56;100146.88;5015087;28;1466;-42
2022/09/11 12:20:02;;;;;;;;;;;;;;;27.97;33.94;100152.03;5052718;28;1255;-42
2022/09/11 12:22:31;;;;;;;;;;;;;;;27.91;34.02;100150.94;5038018;28;1094;-42
2022/09/11 12:24:57;;;;;;;;;;;;;;;27.92;34.15;100147.22;5047666;28;1060;-42
2022/09/11 12:27:35;;;;;;;;;;;;;;;27.89;34.25;100147.66;5052385;28;973;-40
2022/09/11 12:30:15;;;;;;;;;;;;;;;28.46;33.85;100147.34;5041451;28;1910;-42
2022/09/11 12:32:41;;;;;;;;;;;;;;;28.05;34.67;100149.13;5048541;28;973;-41
2022/09/11 12:35:14;;;;;;;;;;;;;;;27.97;34.43;100147.47;5053008;28;1080;-42
2022/09/11 12:37:39;;;;;;;;;;;;;;;28.02;34.46;100148.69;5054995;28;1037;-42
2022/09/11 12:40:17;;;;;;;;;;;;;;;27.90;34.76;100148.47;5046098;28;1349;-42
2022/09/11 12:42:52;;;;;;;;;;;;;;;27.74;34.59;100142.41;5055770;28;1025;-42
2022/09/11 12:45:34;;;;;;;;;;;;;;;27.77;33.54;100146.53;5049247;28;856;-42
2022/09/11 12:48:10;;;;;;;;;;;;;;;27.91;34.48;100142.84;5051330;28;957;-40
2022/09/11 12:50:35;;;;;;;;;;;;;;;28.37;33.58;100145.91;5050822;28;1906;-40
2022/09/11 12:53:04;;;;;;;;;;;;;;;28.64;33.16;100134.25;5052535;28;969;-40
2022/09/11 12:55:38;;;;;;;;;;;;;;;28.73;32.50;100135.69;5053018;28;1009;-40